sensor_id;sensor_type;location;lat;lon;timestamp;pressure;altitude;pressure_sealevel;temperature;humidity
54172;BME280;40076;52.354;4.970;2022-08-21T00:00:46;101683.63;;;19.80;62.41
54172;BME280;40076;52.354;4.970;2022-08-21T00:03:12;101684.78;;;19.79;62.39
54172;BME280;40076;52.354;4.970;2022-08-21T00:05:45;101682.03;;;19.79;62.48
54172;BME280;40076;52.354;4.970;2022-08-21T00:08:11;101683.19;;;19.78;62.44
54172;BME280;40076;52.354;4.970;2022-08-21T00:10:38;101674.53;;;19.76;62.23
54172;BME280;40076;52.354;4.970;2022-08-21T00:13:04;101680.81;;;19.77;62.38
54172;BME280;40076;52.354;4.970;2022-08-21T00:15:30;101673.75;;;19.76;62.31
54172;BME280;40076;52.354;4.970;2022-08-21T00:17:56;101672.97;;;19.75;62.31
54172;BME280;40076;52.354;4.970;2022-08-21T00:20:21;101669.44;;;19.75;62.46
54172;BME280;40076;52.354;4.970;2022-08-21T00:22:47;101669.00;;;19.73;62.52
54172;BME280;40076;52.354;4.970;2022-08-21T00:25:12;101671.28;;;19.71;62.56
54172;BME280;40076;52.354;4.970;2022-08-21T00:27:38;101670.06;;;19.68;62.55
54172;BME280;40076;52.354;4.970;2022-08-21T00:30:05;101665.75;;;19.67;62.67
54172;BME280;40076;52.354;4.970;2022-08-21T00:32:30;101661.75;;;19.64;62.76
54172;BME280;40076;52.354;4.970;2022-08-21T00:34:55;101667.59;;;19.63;62.73
54172;BME280;40076;52.354;4.970;2022-08-21T00:37:21;101669.91;;;19.61;62.83
54172;BME280;40076;52.354;4.970;2022-08-21T00:39:46;101661.69;;;19.61;62.97
54172;BME280;40076;52.354;4.970;2022-08-21T00:42:12;101659.66;;;19.58;63.45
54172;BME280;40076;52.354;4.970;2022-08-21T00:44:40;101656.84;;;19.54;63.61
54172;BME280;40076;52.354;4.970;2022-08-21T00:47:05;101664.66;;;19.52;63.61
54172;BME280;40076;52.354;4.970;2022-08-21T00:49:31;101664.66;;;19.52;63.85
54172;BME280;40076;52.354;4.970;2022-08-21T00:51:57;101665.81;;;19.51;63.71
54172;BME280;40076;52.354;4.970;2022-08-21T00:54:24;101675.97;;;19.51;63.96
54172;BME280;40076;52.354;4.970;2022-08-21T00:56:54;101673.59;;;19.49;64.02
54172;BME280;40076;52.354;4.970;2022-08-21T00:59:20;101670.72;;;19.46;64.83
54172;BME280;40076;52.354;4.970;2022-08-21T01:01:46;101667.22;;;19.45;64.52
54172;BME280;40076;52.354;4.970;2022-08-21T01:04:13;101663.22;;;19.43;64.75
54172;BME280;40076;52.354;4.970;2022-08-21T01:06:38;101662.78;;;19.41;65.04
54172;BME280;40076;52.354;4.970;2022-08-21T01:09:03;101662.72;;;19.37;65.10
54172;BME280;40076;52.354;4.970;2022-08-21T01:11:28;101661.94;;;19.37;65.04
54172;BME280;40076;52.354;4.970;2022-08-21T01:13:54;101664.28;;;19.38;64.98
54172;BME280;40076;52.354;4.970;2022-08-21T01:16:20;101663.88;;;19.36;65.24
54172;BME280;40076;52.354;4.970;2022-08-21T01:18:46;101664.22;;;19.35;65.45
54172;BME280;40076;52.354;4.970;2022-08-21T01:21:17;101672.00;;;19.33;65.58
54172;BME280;40076;52.354;4.970;2022-08-21T01:23:44;101667.31;;;19.33;65.69
54172;BME280;40076;52.354;4.970;2022-08-21T01:26:11;101671.22;;;19.32;65.82
54172;BME280;40076;52.354;4.970;2022-08-21T01:28:37;101670.41;;;19.32;65.96
54172;BME280;40076;52.354;4.970;2022-08-21T01:31:03;101676.25;;;19.30;65.69
54172;BME280;40076;52.354;4.970;2022-08-21T01:33:29;101671.94;;;19.29;66.00
54172;BME280;40076;52.354;4.970;2022-08-21T01:35:55;101670.00;;;19.30;66.10
54172;BME280;40076;52.354;4.970;2022-08-21T01:38:20;101662.47;;;19.26;66.56
54172;BME280;40076;52.354;4.970;2022-08-21T01:40:45;101666.72;;;19.24;66.99
54172;BME280;40076;52.354;4.970;2022-08-21T01:43:11;101672.13;;;19.20;66.74
54172;BME280;40076;52.354;4.970;2022-08-21T01:45:36;101664.25;;;19.19;66.77
54172;BME280;40076;52.354;4.970;2022-08-21T01:48:01;101667.69;;;19.16;67.79
54172;BME280;40076;52.354;4.970;2022-08-21T01:50:28;101666.13;;;19.15;67.18
54172;BME280;40076;52.354;4.970;2022-08-21T01:52:53;101665.69;;;19.13;67.40
54172;BME280;40076;52.354;4.970;2022-08-21T01:55:19;101658.28;;;19.13;66.89
54172;BME280;40076;52.354;4.970;2022-08-21T01:57:47;101662.97;;;19.13;67.18
54172;BME280;40076;52.354;4.970;2022-08-21T02:00:14;101659.41;;;19.12;67.04
54172;BME280;40076;52.354;4.970;2022-08-21T02:02:41;101658.28;;;19.13;67.20
54172;BME280;40076;52.354;4.970;2022-08-21T02:05:07;101647.31;;;19.13;67.15
54172;BME280;40076;52.354;4.970;2022-08-21T02:07:52;101648.47;;;19.12;67.62
54172;BME280;40076;52.354;4.970;2022-08-21T02:10:20;101643.34;;;19.11;67.64
54172;BME280;40076;52.354;4.970;2022-08-21T02:12:45;101632.72;;;19.09;67.52
54172;BME280;40076;52.354;4.970;2022-08-21T02:15:10;101640.50;;;19.07;67.64
54172;BME280;40076;52.354;4.970;2022-08-21T02:17:44;101628.41;;;19.08;67.75
54172;BME280;40076;52.354;4.970;2022-08-21T02:20:14;101632.66;;;19.06;67.90
54172;BME280;40076;52.354;4.970;2022-08-21T02:22:40;101628.69;;;19.03;68.80
54172;BME280;40076;52.354;4.970;2022-08-21T02:25:05;101625.84;;;19.00;68.48
54172;BME280;40076;52.354;4.970;2022-08-21T02:27:36;101633.31;;;18.99;68.18
54172;BME280;40076;52.354;4.970;2022-08-21T02:30:02;101625.78;;;18.96;68.53
54172;BME280;40076;52.354;4.970;2022-08-21T02:32:27;101633.91;;;18.93;68.54
54172;BME280;40076;52.354;4.970;2022-08-21T02:34:53;101632.34;;;18.92;69.27
54172;BME280;40076;52.354;4.970;2022-08-21T02:37:19;101645.25;;;18.91;68.67
54172;BME280;40076;52.354;4.970;2022-08-21T02:39:44;101638.16;;;18.90;68.72
54172;BME280;40076;52.354;4.970;2022-08-21T02:42:09;101638.16;;;18.90;68.88
54172;BME280;40076;52.354;4.970;2022-08-21T02:44:34;101638.16;;;18.90;68.70
54172;BME280;40076;52.354;4.970;2022-08-21T02:46:59;101624.03;;;18.88;69.45
54172;BME280;40076;52.354;4.970;2022-08-21T02:49:25;101628.00;;;18.91;68.88
54172;BME280;40076;52.354;4.970;2022-08-21T02:51:50;101628.34;;;18.89;69.31
54172;BME280;40076;52.354;4.970;2022-08-21T02:54:15;101621.28;;;18.88;69.01
54172;BME280;40076;52.354;4.970;2022-08-21T02:56:41;101624.03;;;18.88;69.31
54172;BME280;40076;52.354;4.970;2022-08-21T02:59:06;101626.31;;;18.86;69.18
54172;BME280;40076;52.354;4.970;2022-08-21T03:01:31;101626.31;;;18.86;69.10
54172;BME280;40076;52.354;4.970;2022-08-21T03:03:56;101624.38;;;18.86;69.09
54172;BME280;40076;52.354;4.970;2022-08-21T03:06:22;101620.03;;;18.85;69.23
54172;BME280;40076;52.354;4.970;2022-08-21T03:08:47;101616.88;;;18.83;69.35
54172;BME280;40076;52.354;4.970;2022-08-21T03:11:13;101609.03;;;18.82;69.99
54172;BME280;40076;52.354;4.970;2022-08-21T03:13:38;101616.78;;;18.80;69.45
54172;BME280;40076;52.354;4.970;2022-08-21T03:16:04;101603.09;;;18.80;69.41
54172;BME280;40076;52.354;4.970;2022-08-21T03:18:29;101607.00;;;18.79;69.43
54172;BME280;40076;52.354;4.970;2022-08-21T03:20:54;101609.28;;;18.77;70.15
54172;BME280;40076;52.354;4.970;2022-08-21T03:23:19;101604.97;;;18.76;69.50
54172;BME280;40076;52.354;4.970;2022-08-21T03:25:45;101597.13;;;18.74;69.54
54172;BME280;40076;52.354;4.970;2022-08-21T03:28:12;101597.47;;;18.73;69.56
54172;BME280;40076;52.354;4.970;2022-08-21T03:30:38;101600.19;;;18.73;69.59
54172;BME280;40076;52.354;4.970;2022-08-21T03:33:03;101591.97;;;18.73;69.67
54172;BME280;40076;52.354;4.970;2022-08-21T03:35:28;101587.66;;;18.72;69.58
54172;BME280;40076;52.354;4.970;2022-08-21T03:37:54;101592.34;;;18.71;69.70
54172;BME280;40076;52.354;4.970;2022-08-21T03:40:20;101579.00;;;18.70;69.58
54172;BME280;40076;52.354;4.970;2022-08-21T03:42:45;101583.69;;;18.69;69.54
54172;BME280;40076;52.354;4.970;2022-08-21T03:45:15;101582.13;;;18.68;69.77
54172;BME280;40076;52.354;4.970;2022-08-21T03:47:50;101596.50;;;18.65;69.70
54172;BME280;40076;52.354;4.970;2022-08-21T03:50:15;101585.09;;;18.63;69.78
54172;BME280;40076;52.354;4.970;2022-08-21T03:52:42;101598.38;;;18.61;70.22
54172;BME280;40076;52.354;4.970;2022-08-21T03:55:07;101590.84;;;18.58;70.16
54172;BME280;40076;52.354;4.970;2022-08-21T03:57:32;101592.00;;;18.57;70.33
54172;BME280;40076;52.354;4.970;2022-08-21T03:59:57;101583.31;;;18.55;70.31
54172;BME280;40076;52.354;4.970;2022-08-21T04:02:22;101587.19;;;18.54;70.61
54172;BME280;40076;52.354;4.970;2022-08-21T04:04:48;101580.94;;;18.54;70.59
54172;BME280;40076;52.354;4.970;2022-08-21T04:07:13;101589.06;;;18.50;70.96
54172;BME280;40076;52.354;4.970;2022-08-21T04:09:38;101586.31;;;18.50;70.60
54172;BME280;40076;52.354;4.970;2022-08-21T04:12:03;101590.56;;;18.47;70.81
54172;BME280;40076;52.354;4.970;2022-08-21T04:14:29;101591.69;;;18.46;71.03
54172;BME280;40076;52.354;4.970;2022-08-21T04:16:55;101593.22;;;18.44;71.00
54172;BME280;40076;52.354;4.970;2022-08-21T04:19:20;101598.25;;;18.42;70.91
54172;BME280;40076;52.354;4.970;2022-08-21T04:21:45;101603.25;;;18.40;71.00
54172;BME280;40076;52.354;4.970;2022-08-21T04:24:10;101603.19;;;18.36;71.41
54172;BME280;40076;52.354;4.970;2022-08-21T04:26:36;101604.69;;;18.34;71.43
54172;BME280;40076;52.354;4.970;2022-08-21T04:29:02;101609.34;;;18.33;71.44
54172;BME280;40076;52.354;4.970;2022-08-21T04:31:28;101606.53;;;18.30;71.68
54172;BME280;40076;52.354;4.970;2022-08-21T04:33:53;101609.97;;;18.27;72.57
54172;BME280;40076;52.354;4.970;2022-08-21T04:36:19;101611.47;;;18.24;72.32
54172;BME280;40076;52.354;4.970;2022-08-21T04:38:44;101607.84;;;18.20;72.34
54172;BME280;40076;52.354;4.970;2022-08-21T04:41:09;101614.00;;;18.17;72.93
54172;BME280;40076;52.354;4.970;2022-08-21T04:43:35;101612.00;;;18.14;72.60
54172;BME280;40076;52.354;4.970;2022-08-21T04:46:00;101610.41;;;18.13;72.46
54172;BME280;40076;52.354;4.970;2022-08-21T04:48:25;101614.28;;;18.12;72.49
54172;BME280;40076;52.354;4.970;2022-08-21T04:53:18;101614.56;;;18.07;73.38
54172;BME280;40076;52.354;4.970;2022-08-21T04:55:45;101611.03;;;18.06;72.84
54172;BME280;40076;52.354;4.970;2022-08-21T04:58:12;101608.63;;;18.05;72.79
54172;BME280;40076;52.354;4.970;2022-08-21T05:00:38;101616.03;;;18.04;72.72
54172;BME280;40076;52.354;4.970;2022-08-21T05:03:03;101617.97;;;18.04;72.67
54172;BME280;40076;52.354;4.970;2022-08-21T05:05:29;101618.66;;;18.01;73.25
54172;BME280;40076;52.354;4.970;2022-08-21T05:07:54;101619.38;;;17.98;74.38
54172;BME280;40076;52.354;4.970;2022-08-21T05:10:21;101616.66;;;17.98;73.21
54172;BME280;40076;52.354;4.970;2022-08-21T05:12:46;101616.19;;;17.96;73.94
54172;BME280;40076;52.354;4.970;2022-08-21T05:15:11;101609.13;;;17.95;73.60
54172;BME280;40076;52.354;4.970;2022-08-21T05:17:37;101618.47;;;17.94;73.81
54172;BME280;40076;52.354;4.970;2022-08-21T05:20:02;101615.31;;;17.92;73.84
54172;BME280;40076;52.354;4.970;2022-08-21T05:22:28;101616.44;;;17.91;74.23
54172;BME280;40076;52.354;4.970;2022-08-21T05:24:53;101610.66;;;17.92;73.79
54172;BME280;40076;52.354;4.970;2022-08-21T05:27:18;101614.13;;;17.93;73.87
54172;BME280;40076;52.354;4.970;2022-08-21T05:29:44;101617.25;;;17.91;74.26
54172;BME280;40076;52.354;4.970;2022-08-21T05:32:10;101618.06;;;17.92;74.57
54172;BME280;40076;52.354;4.970;2022-08-21T05:34:35;101626.94;;;17.89;76.01
54172;BME280;40076;52.354;4.970;2022-08-21T05:37:01;101627.03;;;17.92;74.21
54172;BME280;40076;52.354;4.970;2022-08-21T05:39:26;101632.94;;;17.94;74.20
54172;BME280;40076;52.354;4.970;2022-08-21T05:41:51;101625.53;;;17.95;74.43
54172;BME280;40076;52.354;4.970;2022-08-21T05:44:16;101629.78;;;17.92;74.87
54172;BME280;40076;52.354;4.970;2022-08-21T05:46:41;101628.19;;;17.91;75.45
54172;BME280;40076;52.354;4.970;2022-08-21T05:49:07;101630.91;;;17.91;75.80
54172;BME280;40076;52.354;4.970;2022-08-21T05:51:32;101633.19;;;17.89;76.87
54172;BME280;40076;52.354;4.970;2022-08-21T05:53:57;101625.78;;;17.90;76.58
54172;BME280;40076;52.354;4.970;2022-08-21T05:56:23;101624.19;;;17.89;76.59
54172;BME280;40076;52.354;4.970;2022-08-21T05:58:48;101628.41;;;17.86;77.36
54172;BME280;40076;52.354;4.970;2022-08-21T06:01:13;101633.09;;;17.86;77.47
54172;BME280;40076;52.354;4.970;2022-08-21T06:03:40;101629.94;;;17.84;78.40
54172;BME280;40076;52.354;4.970;2022-08-21T06:06:05;101623.75;;;17.87;77.32
54172;BME280;40076;52.354;4.970;2022-08-21T06:08:31;101623.75;;;17.87;78.43
54172;BME280;40076;52.354;4.970;2022-08-21T06:10:58;101626.13;;;17.88;79.27
54172;BME280;40076;52.354;4.970;2022-08-21T06:13:23;101626.25;;;17.92;77.13
54172;BME280;40076;52.354;4.970;2022-08-21T06:15:49;101623.59;;;17.95;76.89
54172;BME280;40076;52.354;4.970;2022-08-21T06:18:14;101620.53;;;17.97;77.28
54172;BME280;40076;52.354;4.970;2022-08-21T06:20:40;101622.47;;;17.96;78.43
54172;BME280;40076;52.354;4.970;2022-08-21T06:23:05;101624.06;;;17.97;78.28
54172;BME280;40076;52.354;4.970;2022-08-21T06:25:30;101631.47;;;17.97;78.82
54172;BME280;40076;52.354;4.970;2022-08-21T06:28:03;101627.94;;;17.96;78.91
54172;BME280;40076;52.354;4.970;2022-08-21T06:30:28;101632.25;;;17.97;80.64
54172;BME280;40076;52.354;4.970;2022-08-21T06:32:53;101633.94;;;18.02;77.94
54172;BME280;40076;52.354;4.970;2022-08-21T06:35:19;101632.78;;;18.03;79.18
54172;BME280;40076;52.354;4.970;2022-08-21T06:37:44;101629.38;;;18.06;78.73
54172;BME280;40076;52.354;4.970;2022-08-21T06:40:09;101626.28;;;18.07;78.50
54172;BME280;40076;52.354;4.970;2022-08-21T06:42:35;101627.06;;;18.08;78.83
54172;BME280;40076;52.354;4.970;2022-08-21T06:45:00;101626.38;;;18.11;79.52
54172;BME280;40076;52.354;4.970;2022-08-21T06:47:25;101624.09;;;18.13;78.63
54172;BME280;40076;52.354;4.970;2022-08-21T06:49:50;101624.53;;;18.15;79.56
54172;BME280;40076;52.354;4.970;2022-08-21T06:52:16;101629.28;;;18.18;79.46
54172;BME280;40076;52.354;4.970;2022-08-21T06:54:43;101627.00;;;18.20;80.60
54172;BME280;40076;52.354;4.970;2022-08-21T06:57:08;101628.59;;;18.21;81.43
54172;BME280;40076;52.354;4.970;2022-08-21T06:59:34;101617.72;;;18.25;81.21
54172;BME280;40076;52.354;4.970;2022-08-21T07:01:59;101622.16;;;18.29;80.97
54172;BME280;40076;52.354;4.970;2022-08-21T07:04:25;101625.78;;;18.33;81.98
54172;BME280;40076;52.354;4.970;2022-08-21T07:06:50;101621.22;;;18.37;81.16
54172;BME280;40076;52.354;4.970;2022-08-21T07:09:16;101630.28;;;18.41;82.03
54172;BME280;40076;52.354;4.970;2022-08-21T07:11:41;101623.78;;;18.46;81.40
54172;BME280;40076;52.354;4.970;2022-08-21T07:14:06;101630.91;;;18.50;80.93
54172;BME280;40076;52.354;4.970;2022-08-21T07:16:32;101631.78;;;18.55;81.79
54172;BME280;40076;52.354;4.970;2022-08-21T07:18:59;101631.13;;;18.58;82.44
54172;BME280;40076;52.354;4.970;2022-08-21T07:21:24;101628.91;;;18.63;83.18
54172;BME280;40076;52.354;4.970;2022-08-21T07:23:55;101627.84;;;18.68;82.41
54172;BME280;40076;52.354;4.970;2022-08-21T07:26:22;101633.84;;;18.73;82.43
54172;BME280;40076;52.354;4.970;2022-08-21T07:28:47;101628.44;;;18.77;83.07
54172;BME280;40076;52.354;4.970;2022-08-21T07:31:14;101622.28;;;18.80;83.75
54172;BME280;40076;52.354;4.970;2022-08-21T07:33:42;101632.59;;;18.86;82.79
54172;BME280;40076;52.354;4.970;2022-08-21T07:36:07;101631.53;;;18.91;82.98
54172;BME280;40076;52.354;4.970;2022-08-21T07:38:33;101630.81;;;18.94;83.73
54172;BME280;40076;52.354;4.970;2022-08-21T07:40:59;101635.66;;;19.01;82.95
54172;BME280;40076;52.354;4.970;2022-08-21T07:43:25;101636.56;;;19.05;82.70
54172;BME280;40076;52.354;4.970;2022-08-21T07:45:50;101639.34;;;19.08;83.64
54172;BME280;40076;52.354;4.970;2022-08-21T07:48:16;101632.03;;;19.12;82.29
54172;BME280;40076;52.354;4.970;2022-08-21T07:50:41;101634.47;;;19.17;82.81
54172;BME280;40076;52.354;4.970;2022-08-21T07:53:06;101641.63;;;19.22;83.08
54172;BME280;40076;52.354;4.970;2022-08-21T07:55:32;101626.06;;;19.26;82.62
54172;BME280;40076;52.354;4.970;2022-08-21T07:57:58;101634.44;;;19.33;82.18
54172;BME280;40076;52.354;4.970;2022-08-21T08:00:24;101628.25;;;19.36;82.70
54172;BME280;40076;52.354;4.970;2022-08-21T08:02:50;101632.28;;;19.42;82.11
54172;BME280;40076;52.354;4.970;2022-08-21T08:05:16;101635.56;;;19.48;82.19
54172;BME280;40076;52.354;4.970;2022-08-21T08:07:42;101634.50;;;19.52;82.21
54172;BME280;40076;52.354;4.970;2022-08-21T08:10:07;101629.88;;;19.56;82.57
54172;BME280;40076;52.354;4.970;2022-08-21T08:12:37;101632.69;;;19.60;83.21
54172;BME280;40076;52.354;4.970;2022-08-21T08:15:03;101628.50;;;19.66;82.99
54172;BME280;40076;52.354;4.970;2022-08-21T08:17:29;101628.56;;;19.70;83.51
54172;BME280;40076;52.354;4.970;2022-08-21T08:19:54;101631.03;;;19.75;83.83
54172;BME280;40076;52.354;4.970;2022-08-21T08:22:21;101633.47;;;19.80;83.40
54172;BME280;40076;52.354;4.970;2022-08-21T08:24:49;101630.06;;;19.86;82.80
54172;BME280;40076;52.354;4.970;2022-08-21T08:27:15;101630.94;;;19.90;83.22
54172;BME280;40076;52.354;4.970;2022-08-21T08:29:41;101623.22;;;19.96;82.53
54172;BME280;40076;52.354;4.970;2022-08-21T08:32:06;101624.06;;;20.00;83.39
54172;BME280;40076;52.354;4.970;2022-08-21T08:34:32;101623.41;;;20.07;83.68
54172;BME280;40076;52.354;4.970;2022-08-21T08:36:57;101620.00;;;20.13;82.51
54172;BME280;40076;52.354;4.970;2022-08-21T08:39:23;101618.56;;;20.19;82.57
54172;BME280;40076;52.354;4.970;2022-08-21T08:41:49;101612.41;;;20.26;82.52
54172;BME280;40076;52.354;4.970;2022-08-21T08:44:16;101615.25;;;20.33;82.96
54172;BME280;40076;52.354;4.970;2022-08-21T08:46:43;101618.16;;;20.40;83.32
54172;BME280;40076;52.354;4.970;2022-08-21T08:54:09;101611.84;;;20.62;81.69
54172;BME280;40076;52.354;4.970;2022-08-21T08:56:36;101609.19;;;20.66;81.85
54172;BME280;40076;52.354;4.970;2022-08-21T08:59:07;101609.66;;;20.71;81.54
54172;BME280;40076;52.354;4.970;2022-08-21T09:01:33;101605.41;;;20.77;81.29
54172;BME280;40076;52.354;4.970;2022-08-21T09:03:58;101605.50;;;20.81;81.38
54172;BME280;40076;52.354;4.970;2022-08-21T09:06:36;101602.06;;;20.88;80.69
54172;BME280;40076;52.354;4.970;2022-08-21T09:09:15;101606.78;;;20.91;80.89
54172;BME280;40076;52.354;4.970;2022-08-21T09:14:41;101615.63;;;21.03;80.21
54172;BME280;40076;52.354;4.970;2022-08-21T09:19:44;101614.31;;;21.20;79.26
54172;BME280;40076;52.354;4.970;2022-08-21T09:22:23;101611.28;;;21.29;79.03
54172;BME280;40076;52.354;4.970;2022-08-21T09:25:08;101615.69;;;21.37;78.71
54172;BME280;40076;52.354;4.970;2022-08-21T09:27:36;101606.34;;;21.41;77.48
54172;BME280;40076;52.354;4.970;2022-08-21T09:30:02;101611.09;;;21.44;77.33
54172;BME280;40076;52.354;4.970;2022-08-21T09:32:28;101612.72;;;21.49;77.27
54172;BME280;40076;52.354;4.970;2022-08-21T09:37:33;101619.91;;;21.57;76.72
54172;BME280;40076;52.354;4.970;2022-08-21T09:39:59;101615.22;;;21.61;76.49
54172;BME280;40076;52.354;4.970;2022-08-21T09:42:29;101607.81;;;21.65;75.82
54172;BME280;40076;52.354;4.970;2022-08-21T09:45:09;101611.03;;;21.71;74.04
54172;BME280;40076;52.354;4.970;2022-08-21T09:47:35;101611.53;;;21.80;75.09
54172;BME280;40076;52.354;4.970;2022-08-21T09:50:07;101604.09;;;21.84;74.64
54172;BME280;40076;52.354;4.970;2022-08-21T09:52:33;101602.19;;;21.88;74.37
54172;BME280;40076;52.354;4.970;2022-08-21T09:54:58;101604.16;;;21.91;73.44
54172;BME280;40076;52.354;4.970;2022-08-21T09:57:28;101599.50;;;21.95;73.49
54172;BME280;40076;52.354;4.970;2022-08-21T10:00:28;101606.66;;;22.00;73.19
54172;BME280;40076;52.354;4.970;2022-08-21T10:02:55;101602.38;;;22.06;72.92
54172;BME280;40076;52.354;4.970;2022-08-21T10:05:31;101604.81;;;22.11;72.84
54172;BME280;40076;52.354;4.970;2022-08-21T10:07:57;101605.25;;;22.16;72.24
54172;BME280;40076;52.354;4.970;2022-08-21T10:10:26;101606.84;;;22.21;71.94
54172;BME280;40076;52.354;4.970;2022-08-21T10:20:50;101604.25;;;22.35;70.29
54172;BME280;40076;52.354;4.970;2022-08-21T10:26:05;101600.81;;;22.49;71.03
54172;BME280;40076;52.354;4.970;2022-08-21T10:31:14;101609.88;;;22.53;68.08
54172;BME280;40076;52.354;4.970;2022-08-21T10:33:46;101599.66;;;22.53;68.30
54172;BME280;40076;52.354;4.970;2022-08-21T10:36:16;101603.97;;;22.51;66.22
54172;BME280;40076;52.354;4.970;2022-08-21T10:38:55;101602.78;;;22.48;62.73
54172;BME280;40076;52.354;4.970;2022-08-21T10:41:38;101605.53;;;22.52;67.25
54172;BME280;40076;52.354;4.970;2022-08-21T10:46:44;101600.50;;;22.61;66.81
54172;BME280;40076;52.354;4.970;2022-08-21T10:49:27;101597.00;;;22.64;64.54
54172;BME280;40076;52.354;4.970;2022-08-21T10:51:59;101593.13;;;22.72;65.89
54172;BME280;40076;52.354;4.970;2022-08-21T10:54:35;101594.78;;;22.80;66.21
54172;BME280;40076;52.354;4.970;2022-08-21T10:57:07;101595.22;;;22.89;66.33
54172;BME280;40076;52.354;4.970;2022-08-21T10:59:38;101588.56;;;22.97;65.00
54172;BME280;40076;52.354;4.970;2022-08-21T11:07:35;101591.06;;;23.17;63.98
54172;BME280;40076;52.354;4.970;2022-08-21T11:10:13;101596.59;;;23.24;62.43
54172;BME280;40076;52.354;4.970;2022-08-21T11:12:47;101591.88;;;23.28;59.78
54172;BME280;40076;52.354;4.970;2022-08-21T11:23:25;101599.03;;;23.39;61.52
54172;BME280;40076;52.354;4.970;2022-08-21T11:25:53;101599.03;;;23.39;60.89
54172;BME280;40076;52.354;4.970;2022-08-21T11:28:23;101607.72;;;23.45;60.42
54172;BME280;40076;52.354;4.970;2022-08-21T11:31:02;101603.84;;;23.50;59.93
54172;BME280;40076;52.354;4.970;2022-08-21T11:33:40;101602.69;;;23.54;59.29
54172;BME280;40076;52.354;4.970;2022-08-21T11:36:17;101604.25;;;23.55;58.95
54172;BME280;40076;52.354;4.970;2022-08-21T11:41:30;101614.16;;;23.63;59.18
54172;BME280;40076;52.354;4.970;2022-08-21T11:49:16;101611.41;;;23.74;59.13
54172;BME280;40076;52.354;4.970;2022-08-21T11:51:44;101621.28;;;23.78;59.03
54172;BME280;40076;52.354;4.970;2022-08-21T11:56:37;101612.25;;;23.92;58.81
54172;BME280;40076;52.354;4.970;2022-08-21T11:59:11;101612.66;;;23.98;58.06
54172;BME280;40076;52.354;4.970;2022-08-21T12:01:43;101622.13;;;24.04;57.07
54172;BME280;40076;52.354;4.970;2022-08-21T12:06:39;101605.56;;;24.11;57.23
54172;BME280;40076;52.354;4.970;2022-08-21T12:09:51;101613.06;;;24.14;57.36
54172;BME280;40076;52.354;4.970;2022-08-21T12:14:46;101612.72;;;24.22;57.42
54172;BME280;40076;52.354;4.970;2022-08-21T12:17:22;101620.22;;;24.29;57.86
54172;BME280;40076;52.354;4.970;2022-08-21T12:20:00;101619.81;;;24.27;56.01
54172;BME280;40076;52.354;4.970;2022-08-21T12:22:39;101624.19;;;24.25;54.46
54172;BME280;40076;52.354;4.970;2022-08-21T12:25:09;101615.09;;;24.28;55.25
54172;BME280;40076;52.354;4.970;2022-08-21T12:27:51;101626.16;;;24.31;56.02
54172;BME280;40076;52.354;4.970;2022-08-21T12:30:32;101621.03;;;24.33;56.40
54172;BME280;40076;52.354;4.970;2022-08-21T12:33:00;101624.97;;;24.36;55.92
54172;BME280;40076;52.354;4.970;2022-08-21T12:35:40;101620.25;;;24.33;54.92
54172;BME280;40076;52.354;4.970;2022-08-21T12:40:37;101624.56;;;24.34;55.72
54172;BME280;40076;52.354;4.970;2022-08-21T12:43:05;101619.84;;;24.38;55.87
54172;BME280;40076;52.354;4.970;2022-08-21T12:45:37;101626.13;;;24.42;55.91
54172;BME280;40076;52.354;4.970;2022-08-21T12:48:15;101630.13;;;24.48;55.41
54172;BME280;40076;52.354;4.970;2022-08-21T12:51:05;101630.50;;;24.46;55.14
54172;BME280;40076;52.354;4.970;2022-08-21T12:56:10;101634.03;;;24.43;54.72
54172;BME280;40076;52.354;4.970;2022-08-21T12:58:39;101637.97;;;24.42;54.46
54172;BME280;40076;52.354;4.970;2022-08-21T13:01:06;101641.16;;;24.44;54.92
54172;BME280;40076;52.354;4.970;2022-08-21T13:03:33;101632.06;;;24.44;54.91
54172;BME280;40076;52.354;4.970;2022-08-21T13:06:00;101630.88;;;24.41;55.17
54172;BME280;40076;52.354;4.970;2022-08-21T13:08:27;101636.00;;;24.43;54.35
54172;BME280;40076;52.354;4.970;2022-08-21T13:10:58;101632.09;;;24.40;53.80
54172;BME280;40076;52.354;4.970;2022-08-21T13:13:24;101641.53;;;24.43;53.50
54172;BME280;40076;52.354;4.970;2022-08-21T13:15:56;101634.84;;;24.44;54.01
54172;BME280;40076;52.354;4.970;2022-08-21T13:18:23;101626.56;;;24.40;53.83
54172;BME280;40076;52.354;4.970;2022-08-21T13:20:48;101639.97;;;24.38;54.09
54172;BME280;40076;52.354;4.970;2022-08-21T13:23:24;101639.56;;;24.36;53.98
54172;BME280;40076;52.354;4.970;2022-08-21T13:25:51;101637.59;;;24.40;54.54
54172;BME280;40076;52.354;4.970;2022-08-21T13:28:16;101629.69;;;24.42;54.47
54172;BME280;40076;52.354;4.970;2022-08-21T13:30:43;101630.88;;;24.38;54.09
54172;BME280;40076;52.354;4.970;2022-08-21T13:33:09;101637.97;;;24.42;54.70
54172;BME280;40076;52.354;4.970;2022-08-21T13:35:45;101637.19;;;24.42;54.40
54172;BME280;40076;52.354;4.970;2022-08-21T13:38:11;101635.22;;;24.39;53.99
54172;BME280;40076;52.354;4.970;2022-08-21T13:40:47;101641.16;;;24.37;54.30
54172;BME280;40076;52.354;4.970;2022-08-21T13:43:14;101631.28;;;24.36;54.42
54172;BME280;40076;52.354;4.970;2022-08-21T13:45:43;101638.78;;;24.39;54.64
54172;BME280;40076;52.354;4.970;2022-08-21T13:48:08;101632.84;;;24.37;54.41
54172;BME280;40076;52.354;4.970;2022-08-21T13:50:35;101638.38;;;24.37;54.63
54172;BME280;40076;52.354;4.970;2022-08-21T13:53:03;101640.34;;;24.37;53.64
54172;BME280;40076;52.354;4.970;2022-08-21T13:55:37;101639.97;;;24.38;53.30
54172;BME280;40076;52.354;4.970;2022-08-21T13:58:03;101637.97;;;24.42;54.04